sensor_id;sensor_type;location;lat;lon;timestamp;P1;durP1;ratioP1;P2;durP2;ratioP2
43311;SDS011;30041;48.300;16.352;2022-12-18T00:01:22;4.63;;;3.50;;
43311;SDS011;30041;48.300;16.352;2022-12-18T00:03:49;4.50;;;3.50;;
43311;SDS011;30041;48.300;16.352;2022-12-18T00:06:16;4.55;;;3.83;;
43311;SDS011;30041;48.300;16.352;2022-12-18T00:08:43;4.40;;;3.17;;
43311;SDS011;30041;48.300;16.352;2022-12-18T00:11:16;4.55;;;3.45;;
43311;SDS011;30041;48.300;16.352;2022-12-18T00:13:44;3.90;;;3.22;;
43311;SDS011;30041;48.300;16.352;2022-12-18T00:16:11;3.97;;;3.20;;
43311;SDS011;30041;48.300;16.352;2022-12-18T00:18:39;4.05;;;3.28;;
43311;SDS011;30041;48.300;16.352;2022-12-18T00:21:05;4.18;;;3.30;;
43311;SDS011;30041;48.300;16.352;2022-12-18T00:23:33;4.50;;;3.20;;
43311;SDS011;30041;48.300;16.352;2022-12-18T00:26:00;3.92;;;3.10;;
43311;SDS011;30041;48.300;16.352;2022-12-18T00:28:26;4.18;;;3.35;;
43311;SDS011;30041;48.300;16.352;2022-12-18T00:31:02;4.25;;;3.47;;
43311;SDS011;30041;48.300;16.352;2022-12-18T00:33:30;3.85;;;3.20;;
43311;SDS011;30041;48.300;16.352;2022-12-18T00:36:06;4.22;;;3.15;;
43311;SDS011;30041;48.300;16.352;2022-12-18T00:38:34;4.28;;;2.92;;
43311;SDS011;30041;48.300;16.352;2022-12-18T00:41:00;4.03;;;3.25;;
43311;SDS011;30041;48.300;16.352;2022-12-18T00:43:26;4.20;;;3.30;;
43311;SDS011;30041;48.300;16.352;2022-12-18T00:45:52;4.20;;;3.22;;
43311;SDS011;30041;48.300;16.352;2022-12-18T00:48:25;3.58;;;2.92;;
43311;SDS011;30041;48.300;16.352;2022-12-18T00:50:51;3.75;;;3.00;;
43311;SDS011;30041;48.300;16.352;2022-12-18T00:53:17;3.63;;;2.80;;
43311;SDS011;30041;48.300;16.352;2022-12-18T00:55:43;4.07;;;3.10;;
43311;SDS011;30041;48.300;16.352;2022-12-18T00:58:09;3.40;;;2.70;;
43311;SDS011;30041;48.300;16.352;2022-12-18T01:00:36;3.35;;;2.78;;
43311;SDS011;30041;48.300;16.352;2022-12-18T01:03:02;3.92;;;2.88;;
43311;SDS011;30041;48.300;16.352;2022-12-18T01:05:29;3.22;;;2.78;;
43311;SDS011;30041;48.300;16.352;2022-12-18T01:07:55;3.38;;;2.85;;
43311;SDS011;30041;48.300;16.352;2022-12-18T01:10:21;3.17;;;2.33;;
43311;SDS011;30041;48.300;16.352;2022-12-18T01:12:47;3.50;;;2.60;;
43311;SDS011;30041;48.300;16.352;2022-12-18T01:15:14;3.30;;;2.60;;
43311;SDS011;30041;48.300;16.352;2022-12-18T01:17:41;3.20;;;2.58;;
43311;SDS011;30041;48.300;16.352;2022-12-18T01:20:07;3.08;;;2.47;;
43311;SDS011;30041;48.300;16.352;2022-12-18T01:22:34;3.65;;;2.85;;
43311;SDS011;30041;48.300;16.352;2022-12-18T01:25:03;3.08;;;2.53;;
43311;SDS011;30041;48.300;16.352;2022-12-18T01:27:29;3.30;;;2.53;;
43311;SDS011;30041;48.300;16.352;2022-12-18T01:29:55;3.17;;;2.45;;
43311;SDS011;30041;48.300;16.352;2022-12-18T01:32:21;3.67;;;2.70;;
43311;SDS011;30041;48.300;16.352;2022-12-18T01:34:47;3.50;;;2.70;;
43311;SDS011;30041;48.300;16.352;2022-12-18T01:37:12;2.75;;;2.40;;
43311;SDS011;30041;48.300;16.352;2022-12-18T01:39:38;3.13;;;2.58;;
43311;SDS011;30041;48.300;16.352;2022-12-18T01:42:05;4.28;;;2.40;;
43311;SDS011;30041;48.300;16.352;2022-12-18T01:47:43;3.10;;;2.50;;
43311;SDS011;30041;48.300;16.352;2022-12-18T01:52:37;2.70;;;2.20;;
43311;SDS011;30041;48.300;16.352;2022-12-18T01:55:06;2.90;;;2.20;;
43311;SDS011;30041;48.300;16.352;2022-12-18T01:57:34;2.92;;;2.40;;
43311;SDS011;30041;48.300;16.352;2022-12-18T02:00:03;2.80;;;2.20;;
43311;SDS011;30041;48.300;16.352;2022-12-18T02:02:33;3.00;;;2.40;;
43311;SDS011;30041;48.300;16.352;2022-12-18T02:04:59;2.63;;;2.10;;
43311;SDS011;30041;48.300;16.352;2022-12-18T02:07:41;2.88;;;2.17;;
43311;SDS011;30041;48.300;16.352;2022-12-18T02:10:13;2.95;;;2.20;;
43311;SDS011;30041;48.300;16.352;2022-12-18T02:12:48;2.80;;;2.20;;
43311;SDS011;30041;48.300;16.352;2022-12-18T02:15:47;2.60;;;2.00;;
43311;SDS011;30041;48.300;16.352;2022-12-18T02:18:35;3.10;;;2.17;;
43311;SDS011;30041;48.300;16.352;2022-12-18T02:21:18;2.97;;;2.20;;
43311;SDS011;30041;48.300;16.352;2022-12-18T02:24:07;2.65;;;1.83;;
43311;SDS011;30041;48.300;16.352;2022-12-18T02:26:37;2.67;;;2.05;;
43311;SDS011;30041;48.300;16.352;2022-12-18T02:29:20;2.55;;;1.95;;
43311;SDS011;30041;48.300;16.352;2022-12-18T02:31:51;2.58;;;1.95;;
43311;SDS011;30041;48.300;16.352;2022-12-18T02:34:20;3.20;;;2.30;;
43311;SDS011;30041;48.300;16.352;2022-12-18T02:36:49;2.45;;;1.90;;
43311;SDS011;30041;48.300;16.352;2022-12-18T02:39:21;2.60;;;2.03;;
43311;SDS011;30041;48.300;16.352;2022-12-18T02:41:49;2.60;;;2.00;;
43311;SDS011;30041;48.300;16.352;2022-12-18T02:44:16;2.42;;;1.80;;
43311;SDS011;30041;48.300;16.352;2022-12-18T02:46:48;2.95;;;1.90;;
43311;SDS011;30041;48.300;16.352;2022-12-18T02:54:48;2.65;;;1.90;;
43311;SDS011;30041;48.300;16.352;2022-12-18T02:57:34;2.53;;;1.98;;
43311;SDS011;30041;48.300;16.352;2022-12-18T03:00:12;2.03;;;1.58;;
43311;SDS011;30041;48.300;16.352;2022-12-18T03:02:49;2.33;;;1.90;;
43311;SDS011;30041;48.300;16.352;2022-12-18T03:05:22;2.40;;;1.67;;
43311;SDS011;30041;48.300;16.352;2022-12-18T03:08:03;2.38;;;1.77;;
43311;SDS011;30041;48.300;16.352;2022-12-18T03:10:34;2.60;;;1.90;;
43311;SDS011;30041;48.300;16.352;2022-12-18T03:13:06;2.08;;;1.60;;
43311;SDS011;30041;48.300;16.352;2022-12-18T03:15:37;2.35;;;1.90;;
43311;SDS011;30041;48.300;16.352;2022-12-18T03:18:12;2.40;;;1.90;;
43311;SDS011;30041;48.300;16.352;2022-12-18T03:20:42;2.20;;;1.67;;
43311;SDS011;30041;48.300;16.352;2022-12-18T03:23:10;1.75;;;1.38;;
43311;SDS011;30041;48.300;16.352;2022-12-18T03:25:39;2.40;;;1.60;;
43311;SDS011;30041;48.300;16.352;2022-12-18T03:28:09;2.15;;;1.60;;
43311;SDS011;30041;48.300;16.352;2022-12-18T03:30:39;2.35;;;1.60;;
43311;SDS011;30041;48.300;16.352;2022-12-18T03:35:53;2.42;;;1.80;;
43311;SDS011;30041;48.300;16.352;2022-12-18T03:38:19;2.20;;;1.67;;
43311;SDS011;30041;48.300;16.352;2022-12-18T03:46:56;2.35;;;1.70;;
43311;SDS011;30041;48.300;16.352;2022-12-18T03:52:20;2.20;;;1.60;;
43311;SDS011;30041;48.300;16.352;2022-12-18T03:54:59;1.88;;;1.40;;
43311;SDS011;30041;48.300;16.352;2022-12-18T03:57:27;1.73;;;1.40;;
43311;SDS011;30041;48.300;16.352;2022-12-18T03:59:57;2.38;;;1.60;;
43311;SDS011;30041;48.300;16.352;2022-12-18T04:02:29;1.73;;;1.35;;
43311;SDS011;30041;48.300;16.352;2022-12-18T04:04:57;1.63;;;1.10;;
43311;SDS011;30041;48.300;16.352;2022-12-18T04:07:28;1.60;;;1.30;;
43311;SDS011;30041;48.300;16.352;2022-12-18T04:09:55;1.90;;;1.52;;
43311;SDS011;30041;48.300;16.352;2022-12-18T04:12:24;1.83;;;1.33;;
43311;SDS011;30041;48.300;16.352;2022-12-18T04:14:51;1.45;;;1.17;;
43311;SDS011;30041;48.300;16.352;2022-12-18T04:17:16;1.75;;;1.40;;
43311;SDS011;30041;48.300;16.352;2022-12-18T04:19:45;1.50;;;1.15;;
43311;SDS011;30041;48.300;16.352;2022-12-18T04:22:14;1.48;;;1.25;;
43311;SDS011;30041;48.300;16.352;2022-12-18T04:24:39;1.90;;;1.40;;
43311;SDS011;30041;48.300;16.352;2022-12-18T04:27:05;1.20;;;0.93;;
43311;SDS011;30041;48.300;16.352;2022-12-18T04:29:31;1.67;;;1.20;;
43311;SDS011;30041;48.300;16.352;2022-12-18T04:32:02;1.85;;;1.55;;
43311;SDS011;30041;48.300;16.352;2022-12-18T04:34:28;1.73;;;1.27;;
43311;SDS011;30041;48.300;16.352;2022-12-18T04:36:53;1.77;;;1.30;;
43311;SDS011;30041;48.300;16.352;2022-12-18T04:39:19;1.55;;;1.30;;
43311;SDS011;30041;48.300;16.352;2022-12-18T04:41:45;1.70;;;1.23;;
43311;SDS011;30041;48.300;16.352;2022-12-18T04:44:11;1.73;;;1.30;;
43311;SDS011;30041;48.300;16.352;2022-12-18T04:46:36;1.63;;;1.20;;
43311;SDS011;30041;48.300;16.352;2022-12-18T04:49:02;2.00;;;1.48;;
43311;SDS011;30041;48.300;16.352;2022-12-18T04:51:27;1.70;;;1.38;;
43311;SDS011;30041;48.300;16.352;2022-12-18T04:53:53;1.65;;;1.33;;
43311;SDS011;30041;48.300;16.352;2022-12-18T04:56:19;1.63;;;1.20;;
43311;SDS011;30041;48.300;16.352;2022-12-18T04:58:45;1.35;;;1.15;;
43311;SDS011;30041;48.300;16.352;2022-12-18T05:01:15;1.77;;;1.25;;
43311;SDS011;30041;48.300;16.352;2022-12-18T05:03:42;1.52;;;1.10;;
43311;SDS011;30041;48.300;16.352;2022-12-18T05:06:08;1.90;;;1.30;;
43311;SDS011;30041;48.300;16.352;2022-12-18T05:08:34;1.30;;;1.10;;
43311;SDS011;30041;48.300;16.352;2022-12-18T05:11:01;1.63;;;1.13;;
43311;SDS011;30041;48.300;16.352;2022-12-18T05:13:31;1.27;;;1.05;;
43311;SDS011;30041;48.300;16.352;2022-12-18T05:15:58;1.67;;;1.15;;
43311;SDS011;30041;48.300;16.352;2022-12-18T05:18:23;1.40;;;1.00;;
43311;SDS011;30041;48.300;16.352;2022-12-18T05:20:50;0.90;;;0.80;;
43311;SDS011;30041;48.300;16.352;2022-12-18T05:23:17;1.27;;;0.80;;
43311;SDS011;30041;48.300;16.352;2022-12-18T05:25:51;0.88;;;0.73;;
43311;SDS011;30041;48.300;16.352;2022-12-18T05:28:21;0.85;;;0.75;;
43311;SDS011;30041;48.300;16.352;2022-12-18T05:30:50;0.60;;;0.60;;
43311;SDS011;30041;48.300;16.352;2022-12-18T05:33:16;1.00;;;0.70;;
43311;SDS011;30041;48.300;16.352;2022-12-18T05:35:43;0.77;;;0.50;;
43311;SDS011;30041;48.300;16.352;2022-12-18T05:38:08;0.65;;;0.65;;
43311;SDS011;30041;48.300;16.352;2022-12-18T05:40:34;0.45;;;0.40;;
43311;SDS011;30041;48.300;16.352;2022-12-18T05:43:00;0.82;;;0.65;;
43311;SDS011;30041;48.300;16.352;2022-12-18T05:45:26;0.63;;;0.50;;
43311;SDS011;30041;48.300;16.352;2022-12-18T05:47:51;0.70;;;0.60;;
43311;SDS011;30041;48.300;16.352;2022-12-18T05:50:17;0.70;;;0.60;;
43311;SDS011;30041;48.300;16.352;2022-12-18T05:52:43;0.50;;;0.50;;
43311;SDS011;30041;48.300;16.352;2022-12-18T05:55:08;0.65;;;0.55;;
43311;SDS011;30041;48.300;16.352;2022-12-18T05:57:34;0.52;;;0.40;;
43311;SDS011;30041;48.300;16.352;2022-12-18T06:00:03;0.68;;;0.50;;
43311;SDS011;30041;48.300;16.352;2022-12-18T06:02:29;0.90;;;0.75;;
43311;SDS011;30041;48.300;16.352;2022-12-18T06:04:58;0.90;;;0.60;;
43311;SDS011;30041;48.300;16.352;2022-12-18T06:07:24;0.70;;;0.50;;
43311;SDS011;30041;48.300;16.352;2022-12-18T06:09:50;1.50;;;0.80;;
43311;SDS011;30041;48.300;16.352;2022-12-18T06:12:16;1.85;;;0.82;;
43311;SDS011;30041;48.300;16.352;2022-12-18T06:14:41;1.30;;;0.93;;
43311;SDS011;30041;48.300;16.352;2022-12-18T06:17:07;1.10;;;0.70;;
43311;SDS011;30041;48.300;16.352;2022-12-18T06:19:32;1.00;;;0.75;;
43311;SDS011;30041;48.300;16.352;2022-12-18T06:21:59;2.17;;;0.80;;
43311;SDS011;30041;48.300;16.352;2022-12-18T06:24:27;2.25;;;0.70;;
43311;SDS011;30041;48.300;16.352;2022-12-18T06:26:53;0.68;;;0.52;;
43311;SDS011;30041;48.300;16.352;2022-12-18T06:29:18;0.85;;;0.70;;
43311;SDS011;30041;48.300;16.352;2022-12-18T06:31:44;0.80;;;0.73;;
43311;SDS011;30041;48.300;16.352;2022-12-18T06:34:10;0.70;;;0.55;;
43311;SDS011;30041;48.300;16.352;2022-12-18T06:36:36;1.35;;;0.52;;
43311;SDS011;30041;48.300;16.352;2022-12-18T06:39:01;0.70;;;0.60;;
43311;SDS011;30041;48.300;16.352;2022-12-18T06:41:27;0.80;;;0.63;;
43311;SDS011;30041;48.300;16.352;2022-12-18T06:43:53;0.52;;;0.50;;
43311;SDS011;30041;48.300;16.352;2022-12-18T06:46:19;0.65;;;0.50;;
43311;SDS011;30041;48.300;16.352;2022-12-18T06:48:48;0.63;;;0.50;;
43311;SDS011;30041;48.300;16.352;2022-12-18T06:51:21;0.70;;;0.55;;
43311;SDS011;30041;48.300;16.352;2022-12-18T06:53:47;1.73;;;0.50;;
43311;SDS011;30041;48.300;16.352;2022-12-18T06:56:13;0.45;;;0.30;;
43311;SDS011;30041;48.300;16.352;2022-12-18T06:58:39;0.40;;;0.30;;
43311;SDS011;30041;48.300;16.352;2022-12-18T07:01:05;0.80;;;0.47;;
43311;SDS011;30041;48.300;16.352;2022-12-18T07:03:33;0.50;;;0.32;;
43311;SDS011;30041;48.300;16.352;2022-12-18T07:05:59;0.30;;;0.30;;
43311;SDS011;30041;48.300;16.352;2022-12-18T07:08:25;0.47;;;0.40;;
43311;SDS011;30041;48.300;16.352;2022-12-18T07:10:50;0.52;;;0.40;;
43311;SDS011;30041;48.300;16.352;2022-12-18T07:13:16;0.30;;;0.22;;
43311;SDS011;30041;48.300;16.352;2022-12-18T07:15:43;0.45;;;0.40;;
43311;SDS011;30041;48.300;16.352;2022-12-18T07:18:09;0.50;;;0.30;;
43311;SDS011;30041;48.300;16.352;2022-12-18T07:20:35;0.35;;;0.30;;
43311;SDS011;30041;48.300;16.352;2022-12-18T07:23:02;0.60;;;0.40;;
43311;SDS011;30041;48.300;16.352;2022-12-18T07:25:28;0.35;;;0.30;;
43311;SDS011;30041;48.300;16.352;2022-12-18T07:27:54;0.20;;;0.20;;
43311;SDS011;30041;48.300;16.352;2022-12-18T07:30:19;0.15;;;0.15;;
43311;SDS011;30041;48.300;16.352;2022-12-18T07:32:45;0.20;;;0.20;;
43311;SDS011;30041;48.300;16.352;2022-12-18T07:35:14;0.20;;;0.20;;
43311;SDS011;30041;48.300;16.352;2022-12-18T07:37:39;0.35;;;0.20;;
43311;SDS011;30041;48.300;16.352;2022-12-18T07:40:05;0.20;;;0.20;;
43311;SDS011;30041;48.300;16.352;2022-12-18T07:42:31;0.25;;;0.20;;
43311;SDS011;30041;48.300;16.352;2022-12-18T07:45:00;0.25;;;0.17;;
43311;SDS011;30041;48.300;16.352;2022-12-18T07:47:29;0.20;;;0.20;;
43311;SDS011;30041;48.300;16.352;2022-12-18T07:49:55;0.20;;;0.20;;
43311;SDS011;30041;48.300;16.352;2022-12-18T07:52:20;0.10;;;0.10;;
43311;SDS011;30041;48.300;16.352;2022-12-18T07:54:46;0.20;;;0.17;;
43311;SDS011;30041;48.300;16.352;2022-12-18T07:57:12;5.82;;;2.58;;
43311;SDS011;30041;48.300;16.352;2022-12-18T07:59:38;5.50;;;3.10;;
43311;SDS011;30041;48.300;16.352;2022-12-18T08:02:03;5.25;;;3.40;;
43311;SDS011;30041;48.300;16.352;2022-12-18T08:04:29;6.97;;;3.38;;
43311;SDS011;30041;48.300;16.352;2022-12-18T08:06:54;4.53;;;3.20;;
43311;SDS011;30041;48.300;16.352;2022-12-18T08:09:20;6.32;;;3.65;;
43311;SDS011;30041;48.300;16.352;2022-12-18T08:11:46;5.05;;;3.38;;
43311;SDS011;30041;48.300;16.352;2022-12-18T08:14:12;4.65;;;3.38;;
43311;SDS011;30041;48.300;16.352;2022-12-18T08:16:38;5.78;;;3.22;;
43311;SDS011;30041;48.300;16.352;2022-12-18T08:19:03;7.47;;;3.53;;
43311;SDS011;30041;48.300;16.352;2022-12-18T08:21:30;5.72;;;3.55;;
43311;SDS011;30041;48.300;16.352;2022-12-18T08:23:57;5.03;;;3.80;;
43311;SDS011;30041;48.300;16.352;2022-12-18T08:26:24;8.77;;;3.85;;
43311;SDS011;30041;48.300;16.352;2022-12-18T08:28:52;4.57;;;3.60;;
43311;SDS011;30041;48.300;16.352;2022-12-18T08:31:19;4.65;;;3.58;;
43311;SDS011;30041;48.300;16.352;2022-12-18T08:33:47;4.97;;;3.63;;
43311;SDS011;30041;48.300;16.352;2022-12-18T08:36:15;5.25;;;3.72;;
43311;SDS011;30041;48.300;16.352;2022-12-18T08:38:41;4.97;;;3.75;;
43311;SDS011;30041;48.300;16.352;2022-12-18T08:41:08;7.13;;;4.07;;
43311;SDS011;30041;48.300;16.352;2022-12-18T08:43:35;6.13;;;3.92;;
43311;SDS011;30041;48.300;16.352;2022-12-18T08:46:00;8.55;;;3.70;;
43311;SDS011;30041;48.300;16.352;2022-12-18T08:48:26;5.15;;;3.40;;
43311;SDS011;30041;48.300;16.352;2022-12-18T08:50:55;5.25;;;3.50;;
43311;SDS011;30041;48.300;16.352;2022-12-18T08:53:22;6.25;;;3.30;;
43311;SDS011;30041;48.300;16.352;2022-12-18T08:55:48;8.25;;;4.00;;
43311;SDS011;30041;48.300;16.352;2022-12-18T08:58:14;4.15;;;3.28;;
43311;SDS011;30041;48.300;16.352;2022-12-18T09:00:40;4.07;;;3.35;;
43311;SDS011;30041;48.300;16.352;2022-12-18T09:03:10;4.85;;;3.35;;
43311;SDS011;30041;48.300;16.352;2022-12-18T09:05:42;7.13;;;3.35;;
43311;SDS011;30041;48.300;16.352;2022-12-18T09:08:10;8.48;;;3.40;;
43311;SDS011;30041;48.300;16.352;2022-12-18T09:10:45;5.35;;;3.45;;
43311;SDS011;30041;48.300;16.352;2022-12-18T09:13:12;4.60;;;3.42;;
43311;SDS011;30041;48.300;16.352;2022-12-18T09:15:42;4.88;;;3.40;;
43311;SDS011;30041;48.300;16.352;2022-12-18T09:18:19;6.85;;;3.60;;
43311;SDS011;30041;48.300;16.352;2022-12-18T09:20:46;5.65;;;3.38;;
43311;SDS011;30041;48.300;16.352;2022-12-18T09:23:12;5.43;;;3.60;;
43311;SDS011;30041;48.300;16.352;2022-12-18T09:25:38;15.63;;;3.33;;
43311;SDS011;30041;48.300;16.352;2022-12-18T09:28:05;21.63;;;3.72;;
43311;SDS011;30041;48.300;16.352;2022-12-18T09:30:38;11.60;;;3.53;;
43311;SDS011;30041;48.300;16.352;2022-12-18T09:33:05;10.95;;;3.58;;
43311;SDS011;30041;48.300;16.352;2022-12-18T09:35:31;7.70;;;2.95;;
43311;SDS011;30041;48.300;16.352;2022-12-18T09:37:56;7.85;;;3.45;;
43311;SDS011;30041;48.300;16.352;2022-12-18T09:40:24;6.97;;;3.50;;
43311;SDS011;30041;48.300;16.352;2022-12-18T09:42:55;6.63;;;3.03;;
43311;SDS011;30041;48.300;16.352;2022-12-18T09:45:24;6.70;;;3.53;;
43311;SDS011;30041;48.300;16.352;2022-12-18T09:47:51;5.68;;;3.55;;
43311;SDS011;30041;48.300;16.352;2022-12-18T09:50:31;5.35;;;3.13;;
43311;SDS011;30041;48.300;16.352;2022-12-18T09:53:05;6.40;;;3.10;;
43311;SDS011;30041;48.300;16.352;2022-12-18T09:55:38;8.48;;;3.58;;
43311;SDS011;30041;48.300;16.352;2022-12-18T10:00:53;12.02;;;7.78;;
43311;SDS011;30041;48.300;16.352;2022-12-18T10:03:20;11.70;;;6.22;;
43311;SDS011;30041;48.300;16.352;2022-12-18T10:08:43;8.13;;;4.90;;
43311;SDS011;30041;48.300;16.352;2022-12-18T10:27:58;6.13;;;4.07;;
43311;SDS011;30041;48.300;16.352;2022-12-18T10:30:35;5.40;;;4.10;;
43311;SDS011;30041;48.300;16.352;2022-12-18T10:33:01;6.32;;;4.22;;
43311;SDS011;30041;48.300;16.352;2022-12-18T10:35:28;7.97;;;4.75;;
43311;SDS011;30041;48.300;16.352;2022-12-18T10:38:05;11.38;;;5.18;;
43311;SDS011;30041;48.300;16.352;2022-12-18T10:40:55;6.43;;;4.65;;
43311;SDS011;30041;48.300;16.352;2022-12-18T10:43:38;8.77;;;4.90;;
43311;SDS011;30041;48.300;16.352;2022-12-18T10:46:11;6.22;;;4.95;;
43311;SDS011;30041;48.300;16.352;2022-12-18T10:53:54;6.47;;;5.57;;
43311;SDS011;30041;48.300;16.352;2022-12-18T10:56:20;6.93;;;5.60;;
43311;SDS011;30041;48.300;16.352;2022-12-18T10:58:55;8.13;;;6.15;;
43311;SDS011;30041;48.300;16.352;2022-12-18T11:01:23;6.80;;;5.53;;
43311;SDS011;30041;48.300;16.352;2022-12-18T11:06:16;9.30;;;6.28;;
43311;SDS011;30041;48.300;16.352;2022-12-18T11:08:46;7.85;;;6.10;;
43311;SDS011;30041;48.300;16.352;2022-12-18T11:11:24;8.73;;;6.63;;
43311;SDS011;30041;48.300;16.352;2022-12-18T11:14:03;8.98;;;6.47;;
43311;SDS011;30041;48.300;16.352;2022-12-18T11:16:42;8.70;;;6.50;;
43311;SDS011;30041;48.300;16.352;2022-12-18T11:22:17;6.90;;;5.95;;
43311;SDS011;30041;48.300;16.352;2022-12-18T11:24:52;7.75;;;6.30;;
43311;SDS011;30041;48.300;16.352;2022-12-18T11:27:24;8.50;;;6.07;;
43311;SDS011;30041;48.300;16.352;2022-12-18T11:30:06;7.85;;;6.00;;
43311;SDS011;30041;48.300;16.352;2022-12-18T11:32:38;6.93;;;5.25;;
43311;SDS011;30041;48.300;16.352;2022-12-18T11:37:57;6.55;;;5.70;;
43311;SDS011;30041;48.300;16.352;2022-12-18T11:40:38;7.80;;;6.00;;
43311;SDS011;30041;48.300;16.352;2022-12-18T11:43:13;6.68;;;5.05;;
43311;SDS011;30041;48.300;16.352;2022-12-18T11:45:49;7.50;;;5.50;;
43311;SDS011;30041;48.300;16.352;2022-12-18T11:49:03;5.95;;;4.70;;
43311;SDS011;30041;48.300;16.352;2022-12-18T11:51:19;5.45;;;4.15;;
43311;SDS011;30041;48.300;16.352;2022-12-18T11:54:13;5.43;;;4.25;;
43311;SDS011;30041;48.300;16.352;2022-12-18T11:56:45;5.93;;;4.57;;
43311;SDS011;30041;48.300;16.352;2022-12-18T12:02:13;4.40;;;3.65;;
43311;SDS011;30041;48.300;16.352;2022-12-18T12:13:30;4.18;;;3.17;;
43311;SDS011;30041;48.300;16.352;2022-12-18T12:16:22;6.25;;;3.40;;
43311;SDS011;30041;48.300;16.352;2022-12-18T12:21:41;5.60;;;3.95;;
43311;SDS011;30041;48.300;16.352;2022-12-18T12:26:57;6.88;;;3.67;;
43311;SDS011;30041;48.300;16.352;2022-12-18T12:29:34;4.90;;;3.63;;
43311;SDS011;30041;48.300;16.352;2022-12-18T12:32:29;6.88;;;3.45;;
43311;SDS011;30041;48.300;16.352;2022-12-18T12:35:20;5.10;;;3.42;;
43311;SDS011;30041;48.300;16.352;2022-12-18T12:38:05;6.90;;;3.00;;
43311;SDS011;30041;48.300;16.352;2022-12-18T12:41:02;5.15;;;2.80;;
43311;SDS011;30041;48.300;16.352;2022-12-18T12:46:11;3.83;;;2.75;;
43311;SDS011;30041;48.300;16.352;2022-12-18T12:48:48;4.95;;;2.60;;
43311;SDS011;30041;48.300;16.352;2022-12-18T12:51:23;3.47;;;2.30;;
43311;SDS011;30041;48.300;16.352;2022-12-18T12:53:54;4.47;;;2.40;;
43311;SDS011;30041;48.300;16.352;2022-12-18T12:56:25;3.42;;;2.22;;
43311;SDS011;30041;48.300;16.352;2022-12-18T12:59:16;6.63;;;2.35;;
43311;SDS011;30041;48.300;16.352;2022-12-18T13:04:35;3.78;;;2.17;;
43311;SDS011;30041;48.300;16.352;2022-12-18T13:07:17;5.28;;;2.47;;
43311;SDS011;30041;48.300;16.352;2022-12-18T13:15:40;2.65;;;1.90;;
43311;SDS011;30041;48.300;16.352;2022-12-18T13:20:36;2.78;;;1.70;;
43311;SDS011;30041;48.300;16.352;2022-12-18T13:25:59;2.40;;;1.70;;
43311;SDS011;30041;48.300;16.352;2022-12-18T13:36:44;2.13;;;1.20;;
43311;SDS011;30041;48.300;16.352;2022-12-18T13:41:39;1.98;;;1.20;;
43311;SDS011;30041;48.300;16.352;2022-12-18T13:44:13;2.05;;;1.30;;
43311;SDS011;30041;48.300;16.352;2022-12-18T13:47:01;2.00;;;1.50;;
43311;SDS011;30041;48.300;16.352;2022-12-18T13:49:50;1.98;;;1.38;;
43311;SDS011;30041;48.300;16.352;2022-12-18T13:52:30;1.80;;;1.30;;
43311;SDS011;30041;48.300;16.352;2022-12-18T13:55:02;1.98;;;1.30;;
43311;SDS011;30041;48.300;16.352;2022-12-18T13:57:33;2.10;;;1.30;;
43311;SDS011;30041;48.300;16.352;2022-12-18T14:02:53;1.60;;;1.10;;
43311;SDS011;30041;48.300;16.352;2022-12-18T14:05:26;1.95;;;1.20;;
43311;SDS011;30041;48.300;16.352;2022-12-18T14:10:25;1.52;;;1.00;;
43311;SDS011;30041;48.300;16.352;2022-12-18T14:12:51;1.40;;;1.13;;
43311;SDS011;30041;48.300;16.352;2022-12-18T14:17:52;1.70;;;0.95;;
43311;SDS011;30041;48.300;16.352;2022-12-18T14:20:19;1.85;;;1.15;;
43311;SDS011;30041;48.300;16.352;2022-12-18T14:22:46;1.38;;;0.98;;
43311;SDS011;30041;48.300;16.352;2022-12-18T14:25:21;1.85;;;1.08;;
43311;SDS011;30041;48.300;16.352;2022-12-18T14:28:12;1.33;;;0.90;;
43311;SDS011;30041;48.300;16.352;2022-12-18T14:30:40;1.45;;;1.00;;
43311;SDS011;30041;48.300;16.352;2022-12-18T14:35:34;1.58;;;0.98;;
43311;SDS011;30041;48.300;16.352;2022-12-18T14:38:17;1.25;;;0.85;;
43311;SDS011;30041;48.300;16.352;2022-12-18T14:40:45;1.67;;;0.95;;
43311;SDS011;30041;48.300;16.352;2022-12-18T14:43:11;1.17;;;0.90;;
43311;SDS011;30041;48.300;16.352;2022-12-18T14:45:37;1.33;;;0.80;;
43311;SDS011;30041;48.300;16.352;2022-12-18T14:48:08;1.33;;;0.70;;
43311;SDS011;30041;48.300;16.352;2022-12-18T14:50:39;1.25;;;0.85;;
43311;SDS011;30041;48.300;16.352;2022-12-18T14:53:05;1.30;;;0.95;;
43311;SDS011;30041;48.300;16.352;2022-12-18T14:55:34;1.30;;;0.90;;
43311;SDS011;30041;48.300;16.352;2022-12-18T14:58:00;1.38;;;0.90;;
43311;SDS011;30041;48.300;16.352;2022-12-18T15:00:27;1.20;;;0.90;;
43311;SDS011;30041;48.300;16.352;2022-12-18T15:02:54;1.15;;;0.90;;
43311;SDS011;30041;48.300;16.352;2022-12-18T15:05:28;1.20;;;0.80;;
43311;SDS011;30041;48.300;16.352;2022-12-18T15:07:56;1.08;;;0.82;;
43311;SDS011;30041;48.300;16.352;2022-12-18T15:10:28;1.17;;;0.80;;
43311;SDS011;30041;48.300;16.352;2022-12-18T15:20:38;1.02;;;0.90;;
43311;SDS011;30041;48.300;16.352;2022-12-18T15:26:02;1.50;;;0.90;;
43311;SDS011;30041;48.300;16.352;2022-12-18T15:28:34;1.45;;;1.00;;
43311;SDS011;30041;48.300;16.352;2022-12-18T15:33:39;1.08;;;0.77;;
43311;SDS011;30041;48.300;16.352;2022-12-18T15:36:11;1.10;;;0.80;;
43311;SDS011;30041;48.300;16.352;2022-12-18T15:38:39;1.25;;;0.98;;
43311;SDS011;30041;48.300;16.352;2022-12-18T15:41:04;1.10;;;0.90;;
43311;SDS011;30041;48.300;16.352;2022-12-18T15:43:30;1.50;;;0.93;;
43311;SDS011;30041;48.300;16.352;2022-12-18T15:45:56;1.80;;;1.20;;
43311;SDS011;30041;48.300;16.352;2022-12-18T15:48:23;1.77;;;1.23;;
43311;SDS011;30041;48.300;16.352;2022-12-18T15:50:52;2.90;;;2.03;;
43311;SDS011;30041;48.300;16.352;2022-12-18T15:53:21;2.83;;;2.20;;
43311;SDS011;30041;48.300;16.352;2022-12-18T15:55:52;4.10;;;2.58;;
43311;SDS011;30041;48.300;16.352;2022-12-18T15:58:18;4.15;;;2.20;;
43311;SDS011;30041;48.300;16.352;2022-12-18T16:00:43;2.80;;;2.08;;
43311;SDS011;30041;48.300;16.352;2022-12-18T16:03:09;4.28;;;2.10;;
43311;SDS011;30041;48.300;16.352;2022-12-18T16:05:35;3.33;;;2.35;;
43311;SDS011;30041;48.300;16.352;2022-12-18T16:08:01;3.33;;;2.20;;
43311;SDS011;30041;48.300;16.352;2022-12-18T16:10:27;3.22;;;2.08;;
43311;SDS011;30041;48.300;16.352;2022-12-18T16:12:52;3.08;;;2.22;;
43311;SDS011;30041;48.300;16.352;2022-12-18T16:15:18;3.40;;;2.30;;
43311;SDS011;30041;48.300;16.352;2022-12-18T16:17:44;2.85;;;2.10;;
43311;SDS011;30041;48.300;16.352;2022-12-18T16:20:15;3.00;;;2.10;;
43311;SDS011;30041;48.300;16.352;2022-12-18T16:22:42;2.70;;;1.92;;
43311;SDS011;30041;48.300;16.352;2022-12-18T16:25:20;3.10;;;2.30;;
43311;SDS011;30041;48.300;16.352;2022-12-18T16:27:58;3.10;;;2.10;;
43311;SDS011;30041;48.300;16.352;2022-12-18T16:30:25;3.58;;;2.38;;
43311;SDS011;30041;48.300;16.352;2022-12-18T16:32:54;3.03;;;2.20;;
43311;SDS011;30041;48.300;16.352;2022-12-18T16:35:20;2.90;;;2.20;;
43311;SDS011;30041;48.300;16.352;2022-12-18T16:37:46;3.00;;;2.22;;
43311;SDS011;30041;48.300;16.352;2022-12-18T16:40:13;3.40;;;2.33;;
43311;SDS011;30041;48.300;16.352;2022-12-18T16:42:40;2.83;;;2.10;;
43311;SDS011;30041;48.300;16.352;2022-12-18T16:45:08;3.60;;;2.42;;
43311;SDS011;30041;48.300;16.352;2022-12-18T16:47:35;3.08;;;2.33;;
43311;SDS011;30041;48.300;16.352;2022-12-18T16:50:08;3.47;;;2.35;;
43311;SDS011;30041;48.300;16.352;2022-12-18T16:52:35;3.72;;;2.33;;
43311;SDS011;30041;48.300;16.352;2022-12-18T16:55:00;3.50;;;2.40;;